sensor_id;sensor_type;location;lat;lon;timestamp;pressure;altitude;pressure_sealevel;temperature;humidity
80128;BME280;69440;52.118;5.408;2023-07-24T00:00:52;100566.38;;;18.47;84.84
80128;BME280;69440;52.118;5.408;2023-07-24T00:03:19;100565.69;;;18.45;84.71
80128;BME280;69440;52.118;5.408;2023-07-24T00:05:45;100570.13;;;18.46;84.64
80128;BME280;69440;52.118;5.408;2023-07-24T00:08:12;100574.84;;;18.44;85.02
80128;BME280;69440;52.118;5.408;2023-07-24T00:10:38;100575.84;;;18.43;84.85
80128;BME280;69440;52.118;5.408;2023-07-24T00:13:05;100569.56;;;18.42;84.82
80128;BME280;69440;52.118;5.408;2023-07-24T00:15:31;100566.13;;;18.40;84.80
80128;BME280;69440;52.118;5.408;2023-07-24T00:17:58;100561.94;;;18.36;84.35
80128;BME280;69440;52.118;5.408;2023-07-24T00:20:24;100567.69;;;18.33;84.33
80128;BME280;69440;52.118;5.408;2023-07-24T00:22:52;100569.84;;;18.29;84.88
80128;BME280;69440;52.118;5.408;2023-07-24T00:25:18;100560.41;;;18.24;84.96
80128;BME280;69440;52.118;5.408;2023-07-24T00:27:45;100562.59;;;18.20;84.54
80128;BME280;69440;52.118;5.408;2023-07-24T00:30:11;100554.41;;;18.20;84.41
80128;BME280;69440;52.118;5.408;2023-07-24T00:32:38;100552.41;;;18.22;84.60
80128;BME280;69440;52.118;5.408;2023-07-24T00:35:05;100555.72;;;18.16;84.53
80128;BME280;69440;52.118;5.408;2023-07-24T00:37:31;100552.28;;;18.14;84.78
80128;BME280;69440;52.118;5.408;2023-07-24T00:39:58;100547.69;;;18.15;85.22
80128;BME280;69440;52.118;5.408;2023-07-24T00:42:24;100541.13;;;18.17;85.16
80128;BME280;69440;52.118;5.408;2023-07-24T00:44:51;100535.25;;;18.12;85.29
80128;BME280;69440;52.118;5.408;2023-07-24T00:47:17;100536.97;;;18.13;85.60
80128;BME280;69440;52.118;5.408;2023-07-24T00:49:44;100533.09;;;18.16;85.81
80128;BME280;69440;52.118;5.408;2023-07-24T00:52:11;100531.22;;;18.16;85.64
80128;BME280;69440;52.118;5.408;2023-07-24T00:54:38;100519.66;;;18.14;85.38
80128;BME280;69440;52.118;5.408;2023-07-24T00:57:05;100521.22;;;18.17;85.50
80128;BME280;69440;52.118;5.408;2023-07-24T00:59:32;100515.78;;;18.17;85.26
80128;BME280;69440;52.118;5.408;2023-07-24T01:01:59;100501.16;;;18.18;85.34
80128;BME280;69440;52.118;5.408;2023-07-24T01:04:26;100506.59;;;18.18;85.64
80128;BME280;69440;52.118;5.408;2023-07-24T01:06:53;100500.59;;;18.14;85.35
80128;BME280;69440;52.118;5.408;2023-07-24T01:09:19;100507.19;;;18.12;85.61
80128;BME280;69440;52.118;5.408;2023-07-24T01:11:50;100515.34;;;18.12;85.59
80128;BME280;69440;52.118;5.408;2023-07-24T01:16:58;100513.19;;;18.15;85.50
80128;BME280;69440;52.118;5.408;2023-07-24T01:19:40;100523.06;;;18.16;85.66
80128;BME280;69440;52.118;5.408;2023-07-24T01:25:27;100502.47;;;18.14;85.65
80128;BME280;69440;52.118;5.408;2023-07-24T01:27:55;100507.19;;;18.12;85.75
80128;BME280;69440;52.118;5.408;2023-07-24T01:30:21;100509.22;;;18.10;85.58
80128;BME280;69440;52.118;5.408;2023-07-24T01:32:48;100511.06;;;18.09;85.87
80128;BME280;69440;52.118;5.408;2023-07-24T01:35:15;100509.22;;;18.10;85.70
80128;BME280;69440;52.118;5.408;2023-07-24T01:37:42;100506.50;;;18.10;85.61
80128;BME280;69440;52.118;5.408;2023-07-24T01:40:11;100506.50;;;18.10;86.10
80128;BME280;69440;52.118;5.408;2023-07-24T01:42:38;100501.75;;;18.12;86.06
80128;BME280;69440;52.118;5.408;2023-07-24T01:45:05;100499.75;;;18.04;86.32
80128;BME280;69440;52.118;5.408;2023-07-24T01:47:32;100499.75;;;18.04;86.40
80128;BME280;69440;52.118;5.408;2023-07-24T01:49:58;100486.44;;;18.01;86.48
80128;BME280;69440;52.118;5.408;2023-07-24T01:52:25;100480.00;;;18.02;86.54
80128;BME280;69440;52.118;5.408;2023-07-24T01:54:52;100476.72;;;17.98;86.51
80128;BME280;69440;52.118;5.408;2023-07-24T01:57:18;100466.00;;;17.97;86.58
80128;BME280;69440;52.118;5.408;2023-07-24T01:59:45;100466.28;;;17.94;86.78
80128;BME280;69440;52.118;5.408;2023-07-24T02:02:11;100467.16;;;17.94;86.75
80128;BME280;69440;52.118;5.408;2023-07-24T02:04:38;100470.88;;;17.93;87.05
80128;BME280;69440;52.118;5.408;2023-07-24T02:07:04;100467.16;;;17.94;87.06
80128;BME280;69440;52.118;5.408;2023-07-24T02:09:31;100468.00;;;17.95;87.20
80128;BME280;69440;52.118;5.408;2023-07-24T02:11:57;100467.16;;;17.94;87.41
80128;BME280;69440;52.118;5.408;2023-07-24T02:14:23;100459.28;;;17.91;87.74
80128;BME280;69440;52.118;5.408;2023-07-24T02:16:50;100458.28;;;17.92;87.57
80128;BME280;69440;52.118;5.408;2023-07-24T02:19:17;100466.72;;;17.89;87.82
80128;BME280;69440;52.118;5.408;2023-07-24T02:21:43;100459.28;;;17.91;87.84
80128;BME280;69440;52.118;5.408;2023-07-24T02:24:10;100457.00;;;17.87;88.24
80128;BME280;69440;52.118;5.408;2023-07-24T02:26:36;100455.44;;;17.84;88.33
80128;BME280;69440;52.118;5.408;2023-07-24T02:29:03;100455.28;;;17.86;88.30
80128;BME280;69440;52.118;5.408;2023-07-24T02:31:29;100444.97;;;17.89;88.34
80128;BME280;69440;52.118;5.408;2023-07-24T02:33:56;100448.41;;;17.91;88.13
80128;BME280;69440;52.118;5.408;2023-07-24T02:36:22;100438.25;;;17.93;88.20
80128;BME280;69440;52.118;5.408;2023-07-24T02:38:49;100441.09;;;17.92;88.20
80128;BME280;69440;52.118;5.408;2023-07-24T02:41:15;100442.25;;;17.89;88.34
80128;BME280;69440;52.118;5.408;2023-07-24T02:43:42;100434.81;;;17.91;88.15
80128;BME280;69440;52.118;5.408;2023-07-24T02:46:08;100433.81;;;17.92;88.16
80128;BME280;69440;52.118;5.408;2023-07-24T02:48:35;100435.97;;;17.89;88.25
80128;BME280;69440;52.118;5.408;2023-07-24T02:51:01;100435.25;;;17.87;88.39
80128;BME280;69440;52.118;5.408;2023-07-24T02:53:28;100434.09;;;17.89;88.53
80128;BME280;69440;52.118;5.408;2023-07-24T02:55:54;100436.81;;;17.89;88.45
80128;BME280;69440;52.118;5.408;2023-07-24T02:58:21;100436.81;;;17.89;88.63
80128;BME280;69440;52.118;5.408;2023-07-24T03:00:47;100428.50;;;17.91;88.52
80128;BME280;69440;52.118;5.408;2023-07-24T03:03:14;100431.22;;;17.91;88.53
80128;BME280;69440;52.118;5.408;2023-07-24T03:05:40;100420.22;;;17.92;88.74
80128;BME280;69440;52.118;5.408;2023-07-24T03:08:07;100430.53;;;17.89;89.13
80128;BME280;69440;52.118;5.408;2023-07-24T03:10:33;100425.09;;;17.89;89.06
80128;BME280;69440;52.118;5.408;2023-07-24T03:13:00;100414.38;;;17.87;89.11
80128;BME280;69440;52.118;5.408;2023-07-24T03:15:26;100410.94;;;17.85;89.63
80128;BME280;69440;52.118;5.408;2023-07-24T03:17:53;100420.94;;;17.85;89.95
80128;BME280;69440;52.118;5.408;2023-07-24T03:20:20;100421.97;;;17.84;90.00
80128;BME280;69440;52.118;5.408;2023-07-24T03:22:47;100404.78;;;17.83;90.03
80128;BME280;69440;52.118;5.408;2023-07-24T03:25:13;100398.66;;;17.81;90.09
80128;BME280;69440;52.118;5.408;2023-07-24T03:27:40;100394.06;;;17.82;90.64
80128;BME280;69440;52.118;5.408;2023-07-24T03:30:07;100401.38;;;17.81;90.30
80128;BME280;69440;52.118;5.408;2023-07-24T03:32:35;100402.94;;;17.84;90.35
80128;BME280;69440;52.118;5.408;2023-07-24T03:35:02;100412.53;;;17.78;90.46
80128;BME280;69440;52.118;5.408;2023-07-24T03:37:29;100412.81;;;17.75;90.81
80128;BME280;69440;52.118;5.408;2023-07-24T03:39:55;100406.50;;;17.75;90.60
80128;BME280;69440;52.118;5.408;2023-07-24T03:42:29;100400.09;;;17.76;90.60
80128;BME280;69440;52.118;5.408;2023-07-24T03:44:57;100414.66;;;17.75;90.60
80128;BME280;69440;52.118;5.408;2023-07-24T03:47:24;100413.41;;;17.69;90.17
80128;BME280;69440;52.118;5.408;2023-07-24T03:49:50;100408.81;;;17.69;90.27
80128;BME280;69440;52.118;5.408;2023-07-24T03:52:17;100400.81;;;17.68;90.11
80128;BME280;69440;52.118;5.408;2023-07-24T03:54:44;100406.38;;;17.66;90.14
80128;BME280;69440;52.118;5.408;2023-07-24T03:57:10;100410.53;;;17.61;90.27
80128;BME280;69440;52.118;5.408;2023-07-24T03:59:36;100407.66;;;17.62;90.26
80128;BME280;69440;52.118;5.408;2023-07-24T04:02:03;100412.38;;;17.60;90.57
80128;BME280;69440;52.118;5.408;2023-07-24T04:04:32;100402.06;;;17.64;90.33
80128;BME280;69440;52.118;5.408;2023-07-24T04:06:59;100411.25;;;17.63;90.35
80128;BME280;69440;52.118;5.408;2023-07-24T04:09:26;100409.97;;;17.57;90.65
80128;BME280;69440;52.118;5.408;2023-07-24T04:11:52;100403.13;;;17.53;90.77
80128;BME280;69440;52.118;5.408;2023-07-24T04:14:19;100399.53;;;17.53;90.86
80128;BME280;69440;52.118;5.408;2023-07-24T04:16:45;100400.53;;;17.52;91.08
80128;BME280;69440;52.118;5.408;2023-07-24T04:19:12;100411.41;;;17.52;90.79
80128;BME280;69440;52.118;5.408;2023-07-24T04:21:39;100398.13;;;17.49;90.88
80128;BME280;69440;52.118;5.408;2023-07-24T04:24:05;100404.41;;;17.49;90.80
80128;BME280;69440;52.118;5.408;2023-07-24T04:26:32;100399.97;;;17.48;90.93
80128;BME280;69440;52.118;5.408;2023-07-24T04:29:02;100400.38;;;17.44;90.94
80128;BME280;69440;52.118;5.408;2023-07-24T04:31:28;100405.72;;;17.45;90.77
80128;BME280;69440;52.118;5.408;2023-07-24T04:33:55;100405.72;;;17.45;91.09
80128;BME280;69440;52.118;5.408;2023-07-24T04:36:21;100412.13;;;17.44;91.04
80128;BME280;69440;52.118;5.408;2023-07-24T04:38:48;100422.13;;;17.44;91.05
80128;BME280;69440;52.118;5.408;2023-07-24T04:41:14;100411.25;;;17.44;90.56
80128;BME280;69440;52.118;5.408;2023-07-24T04:43:41;100416.44;;;17.47;90.75
80128;BME280;69440;52.118;5.408;2023-07-24T04:46:07;100416.44;;;17.47;90.69
80128;BME280;69440;52.118;5.408;2023-07-24T04:48:34;100420.16;;;17.46;90.69
80128;BME280;69440;52.118;5.408;2023-07-24T04:51:00;100426.44;;;17.46;90.57
80128;BME280;69440;52.118;5.408;2023-07-24T04:53:27;100419.84;;;17.39;90.27
80128;BME280;69440;52.118;5.408;2023-07-24T04:55:54;100410.13;;;17.36;90.71
80128;BME280;69440;52.118;5.408;2023-07-24T04:58:20;100411.44;;;17.32;90.37
80128;BME280;69440;52.118;5.408;2023-07-24T05:00:47;100415.41;;;17.38;90.45
80128;BME280;69440;52.118;5.408;2023-07-24T05:03:13;100418.00;;;17.39;90.33
80128;BME280;69440;52.118;5.408;2023-07-24T05:05:42;100414.84;;;17.44;90.27
80128;BME280;69440;52.118;5.408;2023-07-24T05:08:13;100421.56;;;17.40;90.25
80128;BME280;69440;52.118;5.408;2023-07-24T05:10:39;100424.13;;;17.42;90.06
80128;BME280;69440;52.118;5.408;2023-07-24T05:13:07;100417.84;;;17.41;90.26
80128;BME280;69440;52.118;5.408;2023-07-24T05:15:35;100405.41;;;17.38;89.85
80128;BME280;69440;52.118;5.408;2023-07-24T05:18:02;100416.56;;;17.35;89.84
80128;BME280;69440;52.118;5.408;2023-07-24T05:20:28;100411.69;;;17.39;89.68
80128;BME280;69440;52.118;5.408;2023-07-24T05:22:55;100413.56;;;17.38;89.47
80128;BME280;69440;52.118;5.408;2023-07-24T05:25:21;100416.28;;;17.38;89.46
80128;BME280;69440;52.118;5.408;2023-07-24T05:27:48;100419.56;;;17.42;89.50
80128;BME280;69440;52.118;5.408;2023-07-24T05:30:14;100420.56;;;17.41;89.38
80128;BME280;69440;52.118;5.408;2023-07-24T05:32:41;100422.41;;;17.41;89.09
80128;BME280;69440;52.118;5.408;2023-07-24T05:35:08;100425.44;;;17.37;89.34
80128;BME280;69440;52.118;5.408;2023-07-24T05:37:34;100423.41;;;17.39;89.63
80128;BME280;69440;52.118;5.408;2023-07-24T05:40:01;100416.13;;;17.40;89.46
80128;BME280;69440;52.118;5.408;2023-07-24T05:42:27;100418.56;;;17.43;89.19
80128;BME280;69440;52.118;5.408;2023-07-24T05:44:54;100412.97;;;17.45;88.94
80128;BME280;69440;52.118;5.408;2023-07-24T05:47:20;100418.28;;;17.46;88.94
80128;BME280;69440;52.118;5.408;2023-07-24T05:49:47;100414.28;;;17.50;88.76
80128;BME280;69440;52.118;5.408;2023-07-24T05:52:13;100416.28;;;17.48;88.22
80128;BME280;69440;52.118;5.408;2023-07-24T05:54:40;100419.72;;;17.50;88.24
80128;BME280;69440;52.118;5.408;2023-07-24T05:57:06;100423.13;;;17.52;88.14
80128;BME280;69440;52.118;5.408;2023-07-24T05:59:33;100423.13;;;17.52;87.83
80128;BME280;69440;52.118;5.408;2023-07-24T06:01:59;100430.44;;;17.52;87.90
80128;BME280;69440;52.118;5.408;2023-07-24T06:04:26;100434.72;;;17.54;88.22
80128;BME280;69440;52.118;5.408;2023-07-24T06:06:52;100429.13;;;17.65;88.01
80128;BME280;69440;52.118;5.408;2023-07-24T06:09:19;100425.28;;;17.68;87.66
80128;BME280;69440;52.118;5.408;2023-07-24T06:11:47;100426.69;;;17.72;86.96
80128;BME280;69440;52.118;5.408;2023-07-24T06:14:14;100425.13;;;17.79;86.73
80128;BME280;69440;52.118;5.408;2023-07-24T06:16:40;100427.25;;;17.85;87.14
80128;BME280;69440;52.118;5.408;2023-07-24T06:19:07;100423.78;;;17.93;86.20
80128;BME280;69440;52.118;5.408;2023-07-24T06:21:33;100432.75;;;18.03;86.54
80128;BME280;69440;52.118;5.408;2023-07-24T06:24:00;100432.59;;;18.05;85.25
80128;BME280;69440;52.118;5.408;2023-07-24T06:26:26;100427.16;;;18.05;85.79
80128;BME280;69440;52.118;5.408;2023-07-24T06:28:53;100430.75;;;18.05;85.46
80128;BME280;69440;52.118;5.408;2023-07-24T06:31:20;100430.91;;;18.04;85.33
80128;BME280;69440;52.118;5.408;2023-07-24T06:33:46;100436.34;;;18.04;85.34
80128;BME280;69440;52.118;5.408;2023-07-24T06:36:13;100426.31;;;18.04;85.40
80128;BME280;69440;52.118;5.408;2023-07-24T06:38:39;100431.59;;;18.06;85.73
80128;BME280;69440;52.118;5.408;2023-07-24T06:41:08;100433.63;;;18.04;83.92
80128;BME280;69440;52.118;5.408;2023-07-24T06:43:34;100439.66;;;18.07;84.35
80128;BME280;69440;52.118;5.408;2023-07-24T06:46:01;100439.34;;;18.10;83.06
80128;BME280;69440;52.118;5.408;2023-07-24T06:48:27;100441.31;;;18.18;83.52
80128;BME280;69440;52.118;5.408;2023-07-24T06:50:54;100437.13;;;18.23;83.23
80128;BME280;69440;52.118;5.408;2023-07-24T06:53:20;100445.84;;;18.27;82.59
80128;BME280;69440;52.118;5.408;2023-07-24T06:55:47;100446.25;;;18.32;82.18
80128;BME280;69440;52.118;5.408;2023-07-24T06:58:13;100427.19;;;18.32;82.61
80128;BME280;69440;52.118;5.408;2023-07-24T07:00:40;100429.34;;;18.38;82.52
80128;BME280;69440;52.118;5.408;2023-07-24T07:03:06;100433.47;;;18.42;81.51
80128;BME280;69440;52.118;5.408;2023-07-24T07:05:33;100429.91;;;18.42;80.76
80128;BME280;69440;52.118;5.408;2023-07-24T07:07:59;100436.66;;;18.38;81.05
80128;BME280;69440;52.118;5.408;2023-07-24T07:10:26;100440.22;;;18.38;80.65
80128;BME280;69440;52.118;5.408;2023-07-24T07:12:53;100437.50;;;18.38;80.55
80128;BME280;69440;52.118;5.408;2023-07-24T07:15:19;100442.53;;;18.33;80.69
80128;BME280;69440;52.118;5.408;2023-07-24T07:17:45;100432.66;;;18.32;80.76
80128;BME280;69440;52.118;5.408;2023-07-24T07:20:12;100442.66;;;18.41;80.95
80128;BME280;69440;52.118;5.408;2023-07-24T07:22:38;100445.16;;;18.52;80.95
80128;BME280;69440;52.118;5.408;2023-07-24T07:25:05;100434.81;;;18.56;80.21
80128;BME280;69440;52.118;5.408;2023-07-24T07:27:32;100441.34;;;18.73;80.17
80128;BME280;69440;52.118;5.408;2023-07-24T07:29:58;100432.25;;;18.82;79.93
80128;BME280;69440;52.118;5.408;2023-07-24T07:32:25;100436.78;;;18.91;79.64
80128;BME280;69440;52.118;5.408;2023-07-24T07:34:51;100439.13;;;18.86;79.06
80128;BME280;69440;52.118;5.408;2023-07-24T07:37:18;100436.16;;;18.79;78.44
80128;BME280;69440;52.118;5.408;2023-07-24T07:39:44;100427.13;;;18.79;79.58
80128;BME280;69440;52.118;5.408;2023-07-24T07:42:11;100419.66;;;18.81;78.69
80128;BME280;69440;52.118;5.408;2023-07-24T07:44:45;100411.88;;;18.86;77.20
80128;BME280;69440;52.118;5.408;2023-07-24T07:47:12;100415.69;;;18.93;79.09
80128;BME280;69440;52.118;5.408;2023-07-24T07:49:38;100413.13;;;18.91;77.74
80128;BME280;69440;52.118;5.408;2023-07-24T07:52:06;100415.53;;;18.95;78.88
80128;BME280;69440;52.118;5.408;2023-07-24T07:54:32;100417.81;;;18.99;78.53
80128;BME280;69440;52.118;5.408;2023-07-24T07:56:59;100424.13;;;19.00;77.80
80128;BME280;69440;52.118;5.408;2023-07-24T07:59:26;100409.06;;;18.96;78.08
80128;BME280;69440;52.118;5.408;2023-07-24T08:01:52;100418.56;;;18.91;77.56
80128;BME280;69440;52.118;5.408;2023-07-24T08:04:19;100409.00;;;18.87;76.94
80128;BME280;69440;52.118;5.408;2023-07-24T08:06:45;100404.88;;;18.83;77.87
80128;BME280;69440;52.118;5.408;2023-07-24T08:09:12;100403.16;;;18.82;77.15
80128;BME280;69440;52.118;5.408;2023-07-24T08:11:38;100410.63;;;18.80;76.96
80128;BME280;69440;52.118;5.408;2023-07-24T08:14:05;100398.25;;;18.86;76.78
80128;BME280;69440;52.118;5.408;2023-07-24T08:16:31;100409.34;;;19.02;76.98
80128;BME280;69440;52.118;5.408;2023-07-24T08:18:59;100410.63;;;19.16;76.26
80128;BME280;69440;52.118;5.408;2023-07-24T08:21:25;100408.13;;;19.22;76.27
80128;BME280;69440;52.118;5.408;2023-07-24T08:23:52;100408.53;;;19.28;75.44
80128;BME280;69440;52.118;5.408;2023-07-24T08:26:18;100414.06;;;19.36;75.72
80128;BME280;69440;52.118;5.408;2023-07-24T08:28:45;100401.97;;;19.56;75.43
80128;BME280;69440;52.118;5.408;2023-07-24T08:31:11;100438.03;;;19.68;74.71
80128;BME280;69440;52.118;5.408;2023-07-24T08:33:38;100406.41;;;19.57;74.68
80128;BME280;69440;52.118;5.408;2023-07-24T08:36:06;100417.94;;;19.69;74.84
80128;BME280;69440;52.118;5.408;2023-07-24T08:38:34;100418.84;;;19.77;73.32
80128;BME280;69440;52.118;5.408;2023-07-24T08:43:35;100419.75;;;19.60;73.68
80128;BME280;69440;52.118;5.408;2023-07-24T08:46:03;100416.28;;;19.58;75.01
80128;BME280;69440;52.118;5.408;2023-07-24T08:48:32;100414.66;;;19.47;74.12
80128;BME280;69440;52.118;5.408;2023-07-24T08:51:06;100411.94;;;19.47;74.88
80128;BME280;69440;52.118;5.408;2023-07-24T08:53:37;100419.47;;;19.71;74.31
80128;BME280;69440;52.118;5.408;2023-07-24T08:56:06;100413.34;;;19.95;73.46
80128;BME280;69440;52.118;5.408;2023-07-24T08:58:33;100403.56;;;20.19;73.54
80128;BME280;69440;52.118;5.408;2023-07-24T09:01:01;100409.94;;;20.35;72.85
80128;BME280;69440;52.118;5.408;2023-07-24T09:03:28;100400.22;;;20.33;71.26
80128;BME280;69440;52.118;5.408;2023-07-24T09:05:55;100409.31;;;20.41;70.81
80128;BME280;69440;52.118;5.408;2023-07-24T09:08:29;100400.13;;;20.51;71.90
80128;BME280;69440;52.118;5.408;2023-07-24T09:10:57;100396.78;;;20.73;71.04
80128;BME280;69440;52.118;5.408;2023-07-24T09:13:24;100403.84;;;20.92;70.45
80128;BME280;69440;52.118;5.408;2023-07-24T09:15:51;100403.50;;;20.95;68.96
80128;BME280;69440;52.118;5.408;2023-07-24T09:18:17;100391.22;;;20.91;69.61
80128;BME280;69440;52.118;5.408;2023-07-24T09:20:45;100371.22;;;20.82;68.86
80128;BME280;69440;52.118;5.408;2023-07-24T09:23:12;100372.94;;;20.91;70.86
80128;BME280;69440;52.118;5.408;2023-07-24T09:25:44;100375.63;;;20.67;69.02
80128;BME280;69440;52.118;5.408;2023-07-24T09:28:12;100373.84;;;20.50;69.97
80128;BME280;69440;52.118;5.408;2023-07-24T09:30:39;100381.81;;;20.35;70.57
80128;BME280;69440;52.118;5.408;2023-07-24T09:33:07;100375.22;;;20.20;70.60
80128;BME280;69440;52.118;5.408;2023-07-24T09:35:34;100379.13;;;20.09;71.04
80128;BME280;69440;52.118;5.408;2023-07-24T09:38:05;100368.69;;;20.04;71.63
80128;BME280;69440;52.118;5.408;2023-07-24T09:40:40;100367.97;;;19.94;71.41
80128;BME280;69440;52.118;5.408;2023-07-24T09:43:23;100358.25;;;19.92;71.92
80128;BME280;69440;52.118;5.408;2023-07-24T09:46:06;100355.81;;;19.89;71.22
80128;BME280;69440;52.118;5.408;2023-07-24T09:48:37;100354.09;;;19.88;71.41
80128;BME280;69440;52.118;5.408;2023-07-24T09:51:10;100358.78;;;19.95;70.97
80128;BME280;69440;52.118;5.408;2023-07-24T09:53:55;100371.44;;;20.04;71.50
80128;BME280;69440;52.118;5.408;2023-07-24T09:56:22;100384.41;;;20.10;70.90
80128;BME280;69440;52.118;5.408;2023-07-24T09:59:05;100387.34;;;20.17;69.29
80128;BME280;69440;52.118;5.408;2023-07-24T10:01:32;100391.19;;;20.32;69.94
80128;BME280;69440;52.118;5.408;2023-07-24T10:04:00;100386.63;;;20.41;69.04
80128;BME280;69440;52.118;5.408;2023-07-24T10:06:28;100370.09;;;20.51;68.05
80128;BME280;69440;52.118;5.408;2023-07-24T10:08:57;100359.50;;;20.48;68.66
80128;BME280;69440;52.118;5.408;2023-07-24T10:11:24;100373.53;;;20.53;68.11
80128;BME280;69440;52.118;5.408;2023-07-24T10:13:52;100374.75;;;20.58;69.67
80128;BME280;69440;52.118;5.408;2023-07-24T10:16:19;100378.50;;;20.65;69.33
80128;BME280;69440;52.118;5.408;2023-07-24T10:18:46;100370.84;;;20.69;67.45
80128;BME280;69440;52.118;5.408;2023-07-24T10:21:13;100366.63;;;20.83;68.10
80128;BME280;69440;52.118;5.408;2023-07-24T10:23:45;100363.53;;;21.02;67.91
80128;BME280;69440;52.118;5.408;2023-07-24T10:26:15;100348.00;;;21.11;66.75
80128;BME280;69440;52.118;5.408;2023-07-24T10:28:47;100348.34;;;20.91;66.47
80128;BME280;69440;52.118;5.408;2023-07-24T10:31:25;100345.91;;;20.64;66.79
80128;BME280;69440;52.118;5.408;2023-07-24T10:34:03;100344.53;;;20.52;67.27
80128;BME280;69440;52.118;5.408;2023-07-24T10:36:33;100340.28;;;20.57;66.45
80128;BME280;69440;52.118;5.408;2023-07-24T10:39:00;100356.16;;;20.70;68.07
80128;BME280;69440;52.118;5.408;2023-07-24T10:41:35;100352.63;;;20.94;67.48
80128;BME280;69440;52.118;5.408;2023-07-24T10:44:03;100348.16;;;21.09;67.20
80128;BME280;69440;52.118;5.408;2023-07-24T10:46:37;100348.03;;;21.35;67.21
80128;BME280;69440;52.118;5.408;2023-07-24T10:49:05;100347.00;;;21.36;65.65
80128;BME280;69440;52.118;5.408;2023-07-24T10:51:32;100339.97;;;21.42;66.11
80128;BME280;69440;52.118;5.408;2023-07-24T10:54:02;100333.44;;;21.67;62.75
80128;BME280;69440;52.118;5.408;2023-07-24T10:56:28;100335.84;;;21.78;62.15
80128;BME280;69440;52.118;5.408;2023-07-24T10:58:55;100335.00;;;21.61;62.82
80128;BME280;69440;52.118;5.408;2023-07-24T11:01:23;100336.22;;;21.51;64.92
80128;BME280;69440;52.118;5.408;2023-07-24T11:03:50;100337.97;;;21.44;62.54
80128;BME280;69440;52.118;5.408;2023-07-24T11:06:20;100334.53;;;21.33;64.74
80128;BME280;69440;52.118;5.408;2023-07-24T11:08:54;100346.16;;;21.35;64.39
80128;BME280;69440;52.118;5.408;2023-07-24T11:11:31;100334.38;;;21.43;64.10
80128;BME280;69440;52.118;5.408;2023-07-24T11:14:01;100340.16;;;21.48;64.68
80128;BME280;69440;52.118;5.408;2023-07-24T11:16:28;100337.09;;;21.51;64.77
80128;BME280;69440;52.118;5.408;2023-07-24T11:18:57;100323.41;;;21.51;64.71
80128;BME280;69440;52.118;5.408;2023-07-24T11:21:24;100338.47;;;21.47;64.68
80128;BME280;69440;52.118;5.408;2023-07-24T11:23:53;100340.66;;;21.52;64.66
80128;BME280;69440;52.118;5.408;2023-07-24T11:26:23;100348.84;;;21.68;64.49
80128;BME280;69440;52.118;5.408;2023-07-24T11:28:51;100354.75;;;21.96;63.86
80128;BME280;69440;52.118;5.408;2023-07-24T11:31:18;100339.56;;;22.33;63.43
80128;BME280;69440;52.118;5.408;2023-07-24T11:33:49;100336.81;;;22.63;62.50
80128;BME280;69440;52.118;5.408;2023-07-24T11:36:16;100355.50;;;22.68;61.92
80128;BME280;69440;52.118;5.408;2023-07-24T11:38:45;100352.75;;;22.68;61.31
80128;BME280;69440;52.118;5.408;2023-07-24T11:41:12;100358.44;;;22.89;62.58
80128;BME280;69440;52.118;5.408;2023-07-24T11:43:46;100354.81;;;22.66;63.28
80128;BME280;69440;52.118;5.408;2023-07-24T11:46:23;100369.00;;;22.30;62.70
80128;BME280;69440;52.118;5.408;2023-07-24T11:48:50;100360.78;;;21.83;64.72
80128;BME280;69440;52.118;5.408;2023-07-24T11:51:19;100362.53;;;21.60;66.05
80128;BME280;69440;52.118;5.408;2023-07-24T11:53:46;100367.00;;;21.45;66.45
80128;BME280;69440;52.118;5.408;2023-07-24T11:56:14;100365.97;;;21.29;67.50
80128;BME280;69440;52.118;5.408;2023-07-24T11:58:41;100368.53;;;21.23;67.98
80128;BME280;69440;52.118;5.408;2023-07-24T12:01:08;100365.09;;;21.04;67.45
80128;BME280;69440;52.118;5.408;2023-07-24T12:03:34;100364.41;;;20.94;68.39
80128;BME280;69440;52.118;5.408;2023-07-24T12:06:02;100369.19;;;20.92;69.13
80128;BME280;69440;52.118;5.408;2023-07-24T12:08:33;100370.38;;;20.98;68.79
80128;BME280;69440;52.118;5.408;2023-07-24T12:11:01;100364.22;;;20.96;68.57
80128;BME280;69440;52.118;5.408;2023-07-24T12:13:27;100363.88;;;20.91;68.32
80128;BME280;69440;52.118;5.408;2023-07-24T12:15:55;100356.53;;;20.91;67.97
80128;BME280;69440;52.118;5.408;2023-07-24T12:18:22;100359.28;;;20.99;68.17
80128;BME280;69440;52.118;5.408;2023-07-24T12:20:48;100354.69;;;21.16;67.18
80128;BME280;69440;52.118;5.408;2023-07-24T12:23:15;100346.00;;;21.45;66.58
80128;BME280;69440;52.118;5.408;2023-07-24T12:25:42;100330.00;;;21.73;65.33
80128;BME280;69440;52.118;5.408;2023-07-24T12:28:09;100330.38;;;22.56;64.70
80128;BME280;69440;52.118;5.408;2023-07-24T12:30:35;100334.50;;;23.06;61.55
80128;BME280;69440;52.118;5.408;2023-07-24T12:33:01;100330.00;;;23.13;62.19
80128;BME280;69440;52.118;5.408;2023-07-24T12:35:28;100334.63;;;23.13;62.29
80128;BME280;69440;52.118;5.408;2023-07-24T12:37:55;100351.56;;;22.93;63.10
80128;BME280;69440;52.118;5.408;2023-07-24T12:40:21;100336.63;;;22.65;62.64
80128;BME280;69440;52.118;5.408;2023-07-24T12:42:48;100344.72;;;22.36;64.12
80128;BME280;69440;52.118;5.408;2023-07-24T12:45:14;100349.94;;;22.14;64.27
80128;BME280;69440;52.118;5.408;2023-07-24T12:47:41;100349.84;;;21.83;65.13
80128;BME280;69440;52.118;5.408;2023-07-24T12:50:08;100340.66;;;21.60;66.83
80128;BME280;69440;52.118;5.408;2023-07-24T12:52:35;100347.16;;;21.43;67.38
80128;BME280;69440;52.118;5.408;2023-07-24T12:55:01;100351.28;;;21.47;69.19
80128;BME280;69440;52.118;5.408;2023-07-24T12:57:29;100355.88;;;21.38;70.65
80128;BME280;69440;52.118;5.408;2023-07-24T12:59:55;100359.84;;;21.27;71.92